PWSweather.com
Personal Weather Stations
Station Observations

BillsChadron, NE 69337

Lat: 42.8275, Lon: -103.0094

Elevation: 3367

Station Type: Davis Vantage pro 2

http://billandcorena.com/weather/root/index.html

Latest ConditionsUpdated 3:10:01 AM MDT Sunday, Oct 21, 2018
Currently Today's Max Today's Min Today's Average
Temperature 50.3°F10.2°C 54.6°F12.6°C 50.2°F10.1°C 51.9°F11.1°C
Dew Point 30.8°F-0.7°C 31.6°F-0.2°C 30.6°F-0.8°C 31.0°F-0.6°C
Winds 2.3 mph SSE3.7 kmh SSE 10.4 mph -16.7 kmh - - 5.3 mph 8.5 kmh
Wind Gusts 3.5 mph5.6 kmh 16.1 mph25.9 kmh - -
Humidity 47% 47% 40% 45%
Pressure 30.10 in1019.3 mb 30.14 in1020.7 mb 30.10 in1019.3 mb -
Hour Temp Dew Point Humidity Winds Wind Gusts Pressure Precip Precip Rate Daily Precip Total
03:10 AM 50.3°F10.2°C 30.8°F-0.7°C 47% 2.3 mph SSE3.7 kmh SSE 3.5 mph5.6 kmh 30.10 in1019.3 mb - 0.00 in0.0 mm 0.00 in0.0 mm
03:00 AM 50.2°F10.1°C 30.7°F-0.7°C 47% 3.5 mph S5.6 kmh S 3.5 mph5.6 kmh 30.10 in1019.3 mb - 0.00 in0.0 mm 0.00 in0.0 mm
02:50 AM 50.5°F10.3°C 31.0°F-0.6°C 47% 3.5 mph SSE5.6 kmh SSE 4.6 mph7.4 kmh 30.10 in1019.3 mb - 0.00 in0.0 mm 0.00 in0.0 mm
02:40 AM 51.2°F10.7°C 31.1°F-0.5°C 46% 4.6 mph SE7.4 kmh SE 5.8 mph9.3 kmh 30.10 in1019.3 mb - 0.00 in0.0 mm 0.00 in0.0 mm
02:30 AM 51.2°F10.7°C 30.6°F-0.8°C 45% 3.5 mph SE5.6 kmh SE 4.6 mph7.4 kmh 30.11 in1019.6 mb - 0.00 in0.0 mm 0.00 in0.0 mm
02:20 AM 51.6°F10.9°C 30.9°F-0.6°C 45% 4.6 mph SE7.4 kmh SE 5.8 mph9.3 kmh 30.11 in1019.6 mb - 0.00 in0.0 mm 0.00 in0.0 mm
02:10 AM 51.5°F10.8°C 31.4°F-0.3°C 46% 4.6 mph SE7.4 kmh SE 8.1 mph13.0 kmh 30.11 in1019.6 mb - 0.00 in0.0 mm 0.00 in0.0 mm
02:00 AM 51.7°F10.9°C 31.0°F-0.6°C 45% 3.5 mph SE5.6 kmh SE 4.6 mph7.4 kmh 30.11 in1019.6 mb - 0.00 in0.0 mm 0.00 in0.0 mm
01:50 AM 51.4°F10.8°C 31.3°F-0.4°C 46% 3.5 mph SE5.6 kmh SE 4.6 mph7.4 kmh 30.11 in1019.6 mb - 0.00 in0.0 mm 0.00 in0.0 mm
01:40 AM 51.0°F10.6°C 30.9°F-0.6°C 46% 2.3 mph SE3.7 kmh SE 3.5 mph5.6 kmh 30.11 in1019.6 mb - 0.00 in0.0 mm 0.00 in0.0 mm
01:30 AM 51.2°F10.7°C 30.6°F-0.8°C 45% 2.3 mph SSE3.7 kmh SSE 3.5 mph5.6 kmh 30.12 in1020.0 mb - 0.00 in0.0 mm 0.00 in0.0 mm
01:20 AM 52.3°F11.3°C 31.0°F-0.6°C 44% 5.8 mph SE9.3 kmh SE 6.9 mph11.1 kmh 30.12 in1020.0 mb - 0.00 in0.0 mm 0.00 in0.0 mm
01:10 AM 53.4°F11.9°C 30.9°F-0.6°C 42% 4.6 mph SE7.4 kmh SE 6.9 mph11.1 kmh 30.12 in1020.0 mb - 0.00 in0.0 mm 0.00 in0.0 mm
01:00 AM 53.2°F11.8°C 31.2°F-0.4°C 43% 8.1 mph SE13.0 kmh SE 10.4 mph16.7 kmh 30.13 in1020.3 mb - 0.00 in0.0 mm 0.00 in0.0 mm
12:50 AM 52.5°F11.4°C 31.2°F-0.4°C 44% 8.1 mph SE13.0 kmh SE 12.7 mph20.4 kmh 30.13 in1020.3 mb - 0.00 in0.0 mm 0.00 in0.0 mm
12:40 AM 52.1°F11.2°C 31.4°F-0.3°C 45% 6.9 mph SE11.1 kmh SE 12.7 mph20.4 kmh 30.14 in1020.7 mb - 0.00 in0.0 mm 0.00 in0.0 mm
12:30 AM 52.2°F11.2°C 30.9°F-0.6°C 44% 6.9 mph SE11.1 kmh SE 10.4 mph16.7 kmh 30.14 in1020.7 mb - 0.00 in0.0 mm 0.00 in0.0 mm
12:20 AM 52.5°F11.4°C 31.2°F-0.4°C 44% 9.2 mph SE14.8 kmh SE 11.5 mph18.5 kmh 30.14 in1020.7 mb - 0.00 in0.0 mm 0.00 in0.0 mm
12:10 AM 53.5°F11.9°C 31.6°F-0.2°C 43% 6.9 mph SE11.1 kmh SE 11.5 mph18.5 kmh 30.14 in1020.7 mb - 0.00 in0.0 mm 0.00 in0.0 mm
12:00 AM 54.6°F12.6°C 30.7°F-0.7°C 40% 10.4 mph SE16.7 kmh SE 16.1 mph25.9 kmh 30.14 in1020.7 mb - 0.00 in0.0 mm 0.00 in0.0 mm